Time;durP1;ratioP1;P1;durP2;ratioP2;P2;SDS_P1;SDS_P2;PMS_P1;PMS_P2;Temp;Humidity;BMP_temperature;BMP_pressure;BME280_temperature;BME280_humidity;BME280_pressure;Samples;Min_cycle;Max_cycle;Signal;HPM_P1;HPM_P2
2023/10/13 00:02:01;;;;;;;10.10;4.43;;;20.50;37.70;;;;;;5054541;28;20025;-73
2023/10/13 00:04:32;;;;;;;10.40;4.47;;;20.50;37.80;;;;;;5074417;28;20052;-77
2023/10/13 00:06:59;;;;;;;7.93;4.43;;;20.60;37.70;;;;;;5074398;28;20020;-84
2023/10/13 00:09:31;;;;;;;8.57;3.58;;;20.50;37.90;;;;;;5074550;28;20035;-82
2023/10/13 00:11:58;;;;;;;9.07;4.00;;;20.50;37.90;;;;;;5077327;28;20031;-72
2023/10/13 00:14:30;;;;;;;10.43;4.15;;;20.50;37.90;;;;;;5056272;28;20024;-71
2023/10/13 00:17:05;;;;;;;8.45;3.95;;;20.50;37.80;;;;;;5074088;28;20028;-71
2023/10/13 00:19:38;;;;;;;9.25;3.55;;;20.50;37.80;;;;;;5073861;28;20021;-71
2023/10/13 00:22:11;;;;;;;6.15;3.88;;;20.40;37.90;;;;;;5073864;28;20029;-71
2023/10/13 00:24:49;;;;;;;10.88;4.00;;;20.40;38.10;;;;;;5074252;28;20016;-86
2023/10/13 00:27:29;;;;;;;7.65;3.97;;;20.40;38.40;;;;;;5057156;28;20028;-87
2023/10/13 00:31:00;;;;;;;7.18;3.75;;;20.30;39.20;;;;;;5074389;28;20036;-85
2023/10/13 00:32:56;;;;;;;11.85;3.50;;;20.20;40.00;;;;;;5060357;28;20028;-85
2023/10/13 00:35:29;;;;;;;8.35;4.05;;;20.00;41.50;;;;;;5074388;28;20024;-84
2023/10/13 00:37:57;;;;;;;12.82;3.95;;;19.90;42.60;;;;;;5057015;28;20127;-84
2023/10/13 00:43:03;;;;;;;10.88;3.65;;;19.50;43.60;;;;;;5074562;28;20043;-85
2023/10/13 00:45:33;;;;;;;9.38;3.47;;;19.40;43.90;;;;;;5074504;28;20059;-86
2023/10/13 00:48:01;;;;;;;9.23;4.00;;;19.30;44.40;;;;;;5074452;28;20032;-86
2023/10/13 00:50:27;;;;;;;11.38;4.50;;;19.20;45.00;;;;;;5074644;28;20039;-86
2023/10/13 00:52:54;;;;;;;10.85;4.32;;;19.10;45.40;;;;;;5074749;28;20441;-84
2023/10/13 00:55:22;;;;;;;7.53;3.95;;;19.00;45.40;;;;;;5075636;28;20769;-85
2023/10/13 00:57:53;;;;;;;6.03;3.85;;;18.80;45.70;;;;;;5076121;28;20064;-84
2023/10/13 01:00:20;;;;;;;9.32;4.28;;;18.70;46.00;;;;;;5075763;28;20040;-84
2023/10/13 01:02:54;;;;;;;8.23;4.07;;;18.60;46.30;;;;;;5074882;28;20052;-85
2023/10/13 01:05:21;;;;;;;12.57;5.30;;;18.50;46.50;;;;;;5075721;28;20461;-79
2023/10/13 01:07:54;;;;;;;8.13;4.07;;;18.40;47.10;;;;;;5086389;28;20055;-72
2023/10/13 01:10:25;;;;;;;8.48;4.07;;;18.40;47.40;;;;;;5076091;28;20024;-72
2023/10/13 01:12:52;;;;;;;10.32;4.40;;;18.30;48.30;;;;;;5074151;28;20031;-72
2023/10/13 01:15:20;;;;;;;8.93;4.15;;;18.10;48.50;;;;;;5074595;28;20029;-72
2023/10/13 01:17:47;;;;;;;8.48;4.22;;;18.00;48.50;;;;;;5073900;28;20108;-73
2023/10/13 01:20:26;;;;;;;12.27;4.60;;;18.00;48.40;;;;;;5073000;28;20122;-71
2023/10/13 01:22:57;;;;;;;7.78;3.97;;;17.90;48.80;;;;;;5073186;28;20020;-72
2023/10/13 01:25:27;;;;;;;9.18;4.03;;;18.00;48.80;;;;;;5072864;28;20100;-71
2023/10/13 01:27:53;;;;;;;15.65;5.07;;;17.90;48.80;;;;;;5072770;28;20492;-72
2023/10/13 01:30:26;;;;;;;10.98;4.78;;;17.80;48.60;;;;;;5072870;28;20024;-73
2023/10/13 01:32:53;;;;;;;11.68;4.40;;;17.80;48.40;;;;;;5073033;28;20025;-73
2023/10/13 01:35:24;;;;;;;7.63;4.22;;;17.80;48.60;;;;;;5072853;28;20070;-72
2023/10/13 01:37:50;;;;;;;10.52;4.03;;;17.90;48.70;;;;;;5072730;28;20063;-72
2023/10/13 01:40:19;;;;;;;6.53;3.33;;;17.90;48.60;;;;;;5072759;28;20055;-73
2023/10/13 01:42:55;;;;;;;9.00;4.13;;;17.90;48.60;;;;;;5072997;28;20115;-78
2023/10/13 01:45:28;;;;;;;8.27;3.97;;;17.90;48.80;;;;;;5072992;28;20016;-74
2023/10/13 01:47:54;;;;;;;7.90;4.10;;;17.90;48.90;;;;;;5072710;28;20021;-71
2023/10/13 01:50:29;;;;;;;11.45;4.28;;;17.80;48.70;;;;;;5074825;28;20377;-72
2023/10/13 01:53:17;;;;;;;7.70;4.60;;;17.80;48.60;;;;;;5076743;28;20016;-71
2023/10/13 01:55:43;;;;;;;11.98;4.53;;;17.80;48.60;;;;;;5076945;28;20056;-72
2023/10/13 01:58:16;;;;;;;7.82;4.07;;;17.80;48.60;;;;;;5076609;28;20048;-73
2023/10/13 02:00:47;;;;;;;9.57;4.32;;;17.70;48.70;;;;;;5058630;28;20021;-74
2023/10/13 02:03:17;;;;;;;10.10;4.53;;;17.70;48.90;;;;;;5076308;28;20066;-73
2023/10/13 02:05:47;;;;;;;9.32;4.32;;;17.70;48.80;;;;;;5076606;28;20025;-72
2023/10/13 02:08:25;;;;;;;9.27;4.80;;;17.60;48.70;;;;;;5076358;28;20025;-72
2023/10/13 02:10:52;;;;;;;10.70;4.75;;;17.60;49.10;;;;;;5076333;28;20055;-73
2023/10/13 02:13:19;;;;;;;8.77;4.57;;;17.40;49.50;;;;;;5076402;28;20048;-71
2023/10/13 02:15:45;;;;;;;9.52;4.65;;;17.40;49.50;;;;;;5076637;28;20099;-73
2023/10/13 02:18:25;;;;;;;10.68;4.65;;;17.40;49.50;;;;;;5076211;28;20037;-73
2023/10/13 02:20:55;;;;;;;10.60;4.63;;;17.30;49.70;;;;;;5076810;28;20028;-82
2023/10/13 02:23:22;;;;;;;10.25;4.68;;;17.30;50.00;;;;;;5076400;28;20063;-77
2023/10/13 02:25:48;;;;;;;11.05;4.60;;;17.20;49.90;;;;;;5076256;28;20351;-78
2023/10/13 02:28:14;;;;;;;11.98;5.18;;;17.20;50.00;;;;;;5075930;28;20167;-74
2023/10/13 02:30:44;;;;;;;10.40;4.20;;;17.20;50.00;;;;;;5076255;28;20029;-77
2023/10/13 02:33:13;;;;;;;7.72;4.10;;;17.20;50.00;;;;;;5075946;28;20023;-73
2023/10/13 02:35:50;;;;;;;9.80;4.55;;;17.20;49.90;;;;;;5075869;28;20020;-73
2023/10/13 02:38:16;;;;;;;10.70;4.28;;;17.20;50.00;;;;;;5075736;28;20376;-72
2023/10/13 02:40:42;;;;;;;8.90;4.63;;;17.10;50.00;;;;;;5075770;28;20024;-77
2023/10/13 02:43:07;;;;;;;10.63;4.30;;;17.10;50.20;;;;;;5075754;28;20101;-75
2023/10/13 02:45:36;;;;;;;10.70;4.93;;;17.10;50.10;;;;;;5075570;28;20049;-73
2023/10/13 02:48:12;;;;;;;8.60;4.70;;;17.10;50.20;;;;;;5075860;28;20107;-76
2023/10/13 02:50:43;;;;;;;10.15;5.07;;;17.10;50.30;;;;;;5075648;28;20134;-76
2023/10/13 02:53:12;;;;;;;12.18;4.50;;;17.00;50.50;;;;;;5075588;28;20408;-76
2023/10/13 02:55:39;;;;;;;7.95;4.20;;;17.00;50.60;;;;;;5066512;28;20109;-77
2023/10/13 02:58:05;;;;;;;9.52;4.63;;;16.90;50.80;;;;;;5035630;28;20408;-74
2023/10/13 03:00:31;;;;;;;12.18;4.97;;;17.00;50.80;;;;;;5035574;28;20087;-77
2023/10/13 03:03:00;;;;;;;11.80;5.15;;;16.90;50.90;;;;;;5034559;28;20521;-78
2023/10/13 03:05:30;;;;;;;12.70;5.47;;;16.90;50.60;;;;;;5035215;28;20470;-77
2023/10/13 03:07:58;;;;;;;11.80;5.15;;;16.80;50.60;;;;;;5035436;28;20032;-76
2023/10/13 03:10:28;;;;;;;10.07;4.85;;;16.80;50.80;;;;;;5017652;28;20037;-80
2023/10/13 03:12:54;;;;;;;12.63;5.30;;;16.80;50.70;;;;;;5035782;28;20092;-77
2023/10/13 03:15:22;;;;;;;8.73;5.75;;;16.70;51.10;;;;;;5035699;28;20056;-84
2023/10/13 03:17:48;;;;;;;13.85;5.25;;;16.70;51.10;;;;;;5035819;28;20063;-73
2023/10/13 03:20:24;;;;;;;9.52;5.00;;;16.60;51.00;;;;;;5035231;28;20390;-78
2023/10/13 03:22:53;;;;;;;10.68;4.95;;;16.70;51.20;;;;;;5035155;28;20466;-74
2023/10/13 03:25:29;;;;;;;11.10;5.25;;;16.70;51.20;;;;;;5017814;28;20558;-79
2023/10/13 03:30:23;;;;;;;10.68;5.47;;;16.60;51.60;;;;;;5036396;28;20370;-77
2023/10/13 03:32:53;;;;;;;14.40;5.82;;;16.50;51.70;;;;;;5036385;28;20104;-73
2023/10/13 03:35:27;;;;;;;17.10;5.30;;;16.50;51.60;;;;;;5035304;28;20022;-77
2023/10/13 03:37:54;;;;;;;12.40;5.95;;;16.40;51.80;;;;;;5035516;28;20163;-75
2023/10/13 03:45:26;;;;;;;11.70;5.38;;;16.30;52.70;;;;;;5035049;28;20367;-78
2023/10/13 03:47:54;;;;;;;9.93;5.50;;;16.30;52.90;;;;;;5034770;28;20033;-73
2023/10/13 03:50:32;;;;;;;8.50;4.75;;;16.20;53.00;;;;;;5034742;28;20478;-74
2023/10/13 03:52:58;;;;;;;12.57;5.32;;;16.20;53.20;;;;;;5034823;28;20033;-82
2023/10/13 03:55:26;;;;;;;11.05;5.35;;;16.20;53.30;;;;;;5034496;28;20033;-78
2023/10/13 03:57:53;;;;;;;10.13;4.38;;;16.10;53.30;;;;;;5034747;28;20108;-80
2023/10/13 04:00:26;;;;;;;9.20;5.10;;;16.20;53.40;;;;;;5034406;28;20018;-78
2023/10/13 04:18:59;;;;;;;16.67;5.38;;;16.30;52.70;;;;;;5059281;28;20472;-72
2023/10/13 04:29:49;;;;;;;9.73;4.72;;;16.40;52.50;;;;;;5057723;28;20028;-82
2023/10/13 04:32:19;;;;;;;;;;;16.40;52.60;;;;;;5058246;28;20036;-79
2023/10/13 04:34:57;;;;;;;10.75;5.00;;;16.40;52.30;;;;;;5103737;27;20398;-78
2023/10/13 04:37:30;;;;;;;10.63;4.97;;;16.40;52.40;;;;;;5071229;28;20028;-79
2023/10/13 04:40:09;;;;;;;8.30;4.72;;;16.50;52.50;;;;;;5071029;28;20060;-78
2023/10/13 04:42:50;;;;;;;6.88;4.10;;;16.50;52.30;;;;;;5069524;28;20024;-76
2023/10/13 04:45:38;;;;;;;10.82;4.70;;;16.60;52.10;;;;;;5070580;28;20428;-77
2023/10/13 04:48:17;;;;;;;9.88;4.15;;;16.60;52.00;;;;;;5070788;28;20424;-76
2023/10/13 04:50:58;;;;;;;10.88;4.63;;;16.70;52.00;;;;;;5069745;28;20049;-78
2023/10/13 04:53:33;;;;;;;9.52;5.05;;;16.70;52.10;;;;;;5069115;28;20037;-74
2023/10/13 04:56:07;;;;;;;8.47;4.63;;;16.70;52.00;;;;;;5070558;28;20048;-75
2023/10/13 05:44:55;;;;;;;9.80;4.70;;;17.00;49.60;;;;;;5064453;28;20062;-75
2023/10/13 06:31:01;;;;;;;14.68;4.10;;;17.70;45.50;;;;;;5056026;28;20060;-72
2023/10/13 06:33:29;;;;;;;9.48;4.43;;;17.70;45.90;;;;;;5056064;28;20068;-81
2023/10/13 06:35:56;;;;;;;14.57;4.68;;;17.70;45.80;;;;;;5056422;28;20029;-81
2023/10/13 06:38:22;;;;;;;9.25;4.45;;;17.70;44.90;;;;;;5054167;28;20024;-77
2023/10/13 06:40:50;;;;;;;9.38;3.90;;;17.80;44.40;;;;;;5055344;28;20025;-78
2023/10/13 06:43:16;;;;;;;10.15;4.68;;;18.00;44.20;;;;;;5054828;28;20051;-74
2023/10/13 06:45:50;;;;;;;11.20;3.67;;;18.10;51.90;;;;;;5053803;28;20402;-74
2023/10/13 06:48:18;;;;;;;10.43;4.05;;;18.30;46.50;;;;;;5053170;28;20162;-74
2023/10/13 06:50:48;;;;;;;8.00;3.80;;;18.60;44.90;;;;;;5054903;28;20025;-76
2023/10/13 06:53:14;;;;;;;9.50;3.58;;;18.80;42.80;;;;;;5053101;28;20032;-74
2023/10/13 06:55:39;;;;;;;7.95;3.80;;;19.10;41.70;;;;;;5052952;28;20021;-75
2023/10/13 06:58:13;;;;;;;6.07;3.08;;;19.30;41.30;;;;;;5053641;28;20029;-74
2023/10/13 07:00:52;;;;;;;14.02;4.50;;;19.40;39.50;;;;;;5053213;28;20079;-73
2023/10/13 07:03:19;;;;;;;7.78;3.47;;;19.50;39.00;;;;;;5053091;28;20482;-70
2023/10/13 07:05:47;;;;;;;13.68;4.68;;;19.70;39.90;;;;;;5053981;28;20036;-75
2023/10/13 07:08:14;;;;;;;9.20;3.92;;;19.80;39.10;;;;;;5054387;28;20017;-75
2023/10/13 07:11:05;;;;;;;9.65;3.97;;;20.00;38.70;;;;;;5053333;28;20021;-75
2023/10/13 07:13:31;;;;;;;8.98;4.30;;;20.00;38.80;;;;;;5053185;28;20465;-75
2023/10/13 07:16:12;;;;;;;14.07;4.30;;;20.20;37.50;;;;;;5054101;28;20091;-75
2023/10/13 07:18:42;;;;;;;10.45;3.70;;;20.20;37.10;;;;;;5053183;28;20029;-75
2023/10/13 07:21:11;;;;;;;9.32;3.42;;;20.20;37.80;;;;;;5054370;28;20057;-75
2023/10/13 07:23:38;;;;;;;10.07;3.55;;;20.20;38.30;;;;;;5052619;28;20385;-75
2023/10/13 07:26:08;;;;;;;11.02;3.90;;;20.20;37.30;;;;;;5052950;28;20044;-75
2023/10/13 07:28:43;;;;;;;9.70;3.90;;;20.20;38.00;;;;;;5053905;28;20036;-73
2023/10/13 07:31:14;;;;;;;11.85;3.28;;;20.30;37.80;;;;;;5053978;28;20025;-74
2023/10/13 07:33:41;;;;;;;10.38;4.60;;;20.40;36.80;;;;;;5052192;28;20081;-74
2023/10/13 07:37:12;;;;;;;12.88;3.55;;;20.50;36.50;;;;;;5053703;28;20021;-73
2023/10/13 07:39:21;;;;;;;12.55;3.50;;;20.60;37.30;;;;;;5044454;28;20079;-75
2023/10/13 07:41:54;;;;;;;12.20;3.45;;;20.70;36.50;;;;;;5052086;28;20025;-76
2023/10/13 07:44:24;;;;;;;12.20;3.60;;;20.80;35.60;;;;;;5053783;28;20025;-76
2023/10/13 07:46:58;;;;;;;11.32;3.28;;;20.80;34.90;;;;;;5053877;28;20381;-75
2023/10/13 07:49:30;;;;;;;11.88;3.38;;;20.90;35.80;;;;;;5055601;28;20037;-73
2023/10/13 07:52:00;;;;;;;14.68;3.90;;;21.10;32.10;;;;;;5053386;28;20017;-76
2023/10/13 07:54:26;;;;;;;12.95;3.53;;;21.20;30.60;;;;;;5053680;28;20534;-75
2023/10/13 07:56:54;;;;;;;11.32;3.20;;;21.40;28.90;;;;;;5053182;28;20021;-75
2023/10/13 07:59:22;;;;;;;8.98;3.30;;;21.60;28.30;;;;;;5051671;28;20021;-75
2023/10/13 08:02:06;;;;;;;9.02;3.15;;;21.80;27.80;;;;;;5053315;28;20021;-75
2023/10/13 08:04:35;;;;;;;8.77;2.97;;;21.90;27.70;;;;;;5051565;28;20021;-75
2023/10/13 08:07:12;;;;;;;11.43;3.50;;;22.00;27.20;;;;;;5052616;28;20452;-77
2023/10/13 08:09:41;;;;;;;10.85;3.38;;;22.20;27.20;;;;;;5052966;28;20128;-75
2023/10/13 08:12:11;;;;;;;11.20;3.40;;;22.30;26.90;;;;;;5052815;28;20025;-73
2023/10/13 08:14:39;;;;;;;8.57;3.45;;;22.50;26.40;;;;;;5051298;28;20487;-74
2023/10/13 08:17:09;;;;;;;10.48;3.40;;;22.60;25.60;;;;;;5052906;28;20017;-72
2023/10/13 08:19:44;;;;;;;10.80;3.20;;;22.70;25.80;;;;;;5052900;28;20456;-73
2023/10/13 08:27:48;;;;;;;7.43;2.85;;;23.00;24.00;;;;;;5052792;28;20025;-74
2023/10/13 08:30:26;;;;;;;11.32;3.15;;;23.10;24.60;;;;;;5053021;28;20135;-72
2023/10/13 08:32:54;;;;;;;13.43;3.17;;;23.10;23.80;;;;;;5051264;28;20090;-72
2023/10/13 08:35:54;;;;;;;8.65;3.10;;;23.20;23.80;;;;;;5052688;28;20028;-71
2023/10/13 08:38:15;;;;;;;9.45;3.17;;;23.30;23.90;;;;;;5052421;28;20104;-74
2023/10/13 08:40:56;;;;;;;9.40;2.60;;;23.40;24.20;;;;;;5052761;28;20021;-73
2023/10/13 08:43:38;;;;;;;9.35;3.03;;;23.40;23.70;;;;;;5052472;28;20032;-76
2023/10/13 08:46:06;;;;;;;9.88;3.38;;;23.40;24.60;;;;;;5052650;28;20083;-73
2023/10/13 08:48:32;;;;;;;14.02;2.60;;;23.60;24.80;;;;;;5052785;28;20017;-75
2023/10/13 08:51:04;;;;;;;12.73;3.50;;;23.70;24.80;;;;;;5051436;28;20428;-74
2023/10/13 08:53:33;;;;;;;10.27;2.67;;;23.70;23.60;;;;;;5051175;28;20071;-75
2023/10/13 09:04:33;;;;;;;12.57;3.50;;;24.00;23.70;;;;;;5052835;28;20496;-73
2023/10/13 09:09:59;;;;;;;10.48;3.53;;;24.20;22.90;;;;;;5052739;28;20037;-71
2023/10/13 09:15:05;;;;;;;8.43;3.05;;;24.20;22.30;;;;;;5052561;28;20059;-71
2023/10/13 09:17:35;;;;;;;7.53;3.00;;;24.40;22.80;;;;;;5052467;28;20021;-73
2023/10/13 09:20:23;;;;;;;10.43;3.70;;;24.40;22.10;;;;;;5053396;28;20021;-72
2023/10/13 09:22:54;;;;;;;13.48;3.30;;;24.50;22.50;;;;;;5056540;28;20029;-71
2023/10/13 09:25:23;;;;;;;7.97;3.00;;;24.60;21.30;;;;;;5056099;28;20132;-69
2023/10/13 09:27:53;;;;;;;9.63;3.20;;;24.70;21.60;;;;;;5056135;28;20021;-70
2023/10/13 09:30:20;;;;;;;9.07;3.15;;;24.80;22.10;;;;;;5054892;28;20074;-76
2023/10/13 09:33:01;;;;;;;12.57;3.38;;;25.00;22.20;;;;;;5056089;28;20045;-72
2023/10/13 09:35:28;;;;;;;10.27;3.00;;;25.10;21.60;;;;;;5055107;28;20029;-72
2023/10/13 09:37:56;;;;;;;9.70;3.55;;;25.20;21.70;;;;;;5054848;28;20557;-74
2023/10/13 09:40:34;;;;;;;9.35;3.00;;;25.30;22.10;;;;;;5056321;28;20050;-78
2023/10/13 09:43:08;;;;;;;10.65;3.50;;;25.30;21.70;;;;;;5055995;28;20026;-80
2023/10/13 09:45:43;;;;;;;10.38;3.00;;;25.30;22.00;;;;;;5056153;28;20021;-73
2023/10/13 09:48:16;;;;;;;8.48;3.15;;;25.30;22.50;;;;;;5054650;28;20112;-76
2023/10/13 09:50:46;;;;;;;9.13;3.20;;;25.30;21.70;;;;;;5055881;28;20033;-71
2023/10/13 09:53:14;;;;;;;12.38;3.20;;;25.40;22.00;;;;;;5055665;28;20041;-70
2023/10/13 09:55:49;;;;;;;9.02;3.00;;;25.30;22.80;;;;;;5055780;28;20017;-78
2023/10/13 09:58:17;;;;;;;10.35;3.38;;;25.30;22.60;;;;;;5054870;28;20029;-75
2023/10/13 10:00:57;;;;;;;9.70;3.78;;;25.20;23.20;;;;;;5055665;28;20109;-72
2023/10/13 10:03:39;;;;;;;6.68;2.83;;;25.10;23.10;;;;;;5054330;28;20112;-71
2023/10/13 10:06:13;;;;;;;8.48;3.17;;;25.00;23.80;;;;;;5055426;28;20021;-78
2023/10/13 10:08:48;;;;;;;8.48;3.45;;;25.00;23.60;;;;;;5055742;28;20028;-72
2023/10/13 10:11:25;;;;;;;8.35;3.35;;;24.80;24.00;;;;;;5055889;28;20025;-72
2023/10/13 10:13:58;;;;;;;8.57;3.75;;;24.80;24.30;;;;;;5055413;28;20446;-71
2023/10/13 10:16:59;;;;;;;12.65;3.78;;;24.70;25.20;;;;;;5055181;28;20020;-71
2023/10/13 10:19:26;;;;;;;9.93;3.10;;;24.70;25.20;;;;;;5055159;28;20040;-70
2023/10/13 10:22:05;;;;;;;9.45;3.42;;;24.60;25.60;;;;;;5056293;28;20413;-71
2023/10/13 10:24:30;;;;;;;7.70;3.25;;;24.50;25.70;;;;;;5055512;28;20060;-72
2023/10/13 10:26:56;;;;;;;10.27;3.28;;;24.40;26.80;;;;;;5054269;28;20442;-73
2023/10/13 10:29:22;;;;;;;10.25;3.35;;;24.60;26.40;;;;;;5055313;28;20083;-73
2023/10/13 10:31:48;;;;;;;7.63;3.05;;;24.70;25.80;;;;;;5053675;28;20033;-77
2023/10/13 10:34:18;;;;;;;11.82;3.45;;;25.00;26.20;;;;;;5053532;28;20059;-74
2023/10/13 10:36:53;;;;;;;7.55;2.90;;;25.30;25.80;;;;;;5054880;28;20039;-74
2023/10/13 10:39:21;;;;;;;8.43;3.17;;;25.40;25.00;;;;;;5053602;28;20021;-75
2023/10/13 10:44:16;;;;;;;6.80;3.35;;;25.80;23.70;;;;;;5055160;28;20017;-75
2023/10/13 10:46:51;;;;;;;10.40;3.58;;;25.90;23.80;;;;;;5037127;28;20036;-75
2023/10/13 10:49:29;;;;;;;6.07;3.03;;;26.20;22.80;;;;;;5054652;28;20112;-75
2023/10/13 10:52:04;;;;;;;10.30;3.72;;;26.50;22.60;;;;;;5054382;28;20385;-78
2023/10/13 10:54:31;;;;;;;10.32;3.28;;;26.60;22.80;;;;;;5053599;28;20508;-75
2023/10/13 10:57:10;;;;;;;8.88;3.25;;;26.70;20.70;;;;;;5054155;28;20025;-80
2023/10/13 10:59:38;;;;;;;13.10;3.05;;;27.00;22.60;;;;;;5054662;28;20159;-76
2023/10/13 11:02:07;;;;;;;6.35;3.22;;;27.10;21.10;;;;;;5054466;28;20039;-73
2023/10/13 11:04:40;;;;;;;7.68;3.03;;;27.10;20.40;;;;;;5053569;28;20495;-73
2023/10/13 11:07:06;;;;;;;8.05;3.08;;;27.00;21.00;;;;;;5053201;28;20025;-76
2023/10/13 11:09:45;;;;;;;12.23;3.47;;;27.10;20.80;;;;;;5053213;28;20035;-76
2023/10/13 11:12:22;;;;;;;7.20;3.05;;;27.20;21.40;;;;;;5053518;28;20021;-78
2023/10/13 11:14:51;;;;;;;6.95;3.38;;;27.40;20.00;;;;;;5054685;28;20091;-73
2023/10/13 11:17:26;;;;;;;11.77;3.33;;;27.60;19.30;;;;;;5054427;28;20025;-74
2023/10/13 11:19:52;;;;;;;10.55;3.45;;;27.80;19.50;;;;;;5054278;28;20354;-79
2023/10/13 11:22:29;;;;;;;9.95;3.10;;;27.80;19.50;;;;;;5054144;28;20032;-73
2023/10/13 11:25:12;;;;;;;9.23;3.22;;;27.90;19.20;;;;;;5053042;28;20083;-75
2023/10/13 11:30:20;;;;;;;7.63;2.97;;;28.10;19.60;;;;;;5054210;28;20484;-74
2023/10/13 11:33:07;;;;;;;11.68;3.25;;;28.10;19.80;;;;;;5036769;28;20040;-77
2023/10/13 11:38:28;;;;;;;7.38;3.30;;;28.60;18.80;;;;;;5054559;28;20094;-79
2023/10/13 11:43:35;;;;;;;7.63;3.17;;;28.20;18.90;;;;;;5053783;28;20032;-74
2023/10/13 11:48:36;;;;;;;9.30;3.53;;;28.00;19.40;;;;;;5054072;28;20043;-78
2023/10/13 11:51:16;;;;;;;13.15;3.30;;;28.00;19.40;;;;;;5052459;28;20059;-76
2023/10/13 11:53:44;;;;;;;6.82;3.10;;;28.10;19.90;;;;;;5053411;28;20048;-73
2023/10/13 11:56:10;;;;;;;6.47;2.90;;;28.30;19.30;;;;;;5036058;28;20043;-72
2023/10/13 11:58:36;;;;;;;11.93;3.83;;;28.50;19.00;;;;;;5052313;28;20025;-73
2023/10/13 12:06:22;;;;;;;7.43;3.53;;;29.00;18.90;;;;;;5054204;28;20445;-75
2023/10/13 12:08:52;;;;;;;9.80;3.40;;;29.00;18.30;;;;;;5053544;28;20025;-74
2023/10/13 12:11:30;;;;;;;10.18;3.85;;;28.90;18.50;;;;;;5053463;28;20025;-81
2023/10/13 12:13:56;;;;;;;11.48;3.60;;;28.70;18.60;;;;;;5053750;28;20044;-74
2023/10/13 12:16:23;;;;;;;11.73;3.35;;;28.90;19.00;;;;;;5053562;28;20017;-73
2023/10/13 12:18:55;;;;;;;19.15;3.65;;;29.00;19.30;;;;;;5054504;28;20497;-81
2023/10/13 12:21:21;;;;;;;5.93;3.00;;;28.90;18.60;;;;;;5054639;28;20056;-81
2023/10/13 12:23:47;;;;;;;5.25;3.17;;;28.90;18.20;;;;;;5053719;28;20105;-80
2023/10/13 12:26:19;;;;;;;7.75;3.55;;;28.80;18.70;;;;;;5052665;28;20021;-82
2023/10/13 12:28:51;;;;;;;6.85;3.80;;;29.10;18.40;;;;;;5053791;28;20032;-81
2023/10/13 12:31:17;;;;;;;8.23;3.50;;;29.40;18.60;;;;;;5053724;28;20079;-82
2023/10/13 12:33:47;;;;;;;12.70;3.28;;;29.50;18.50;;;;;;5053206;28;20045;-79
2023/10/13 12:49:49;;;;;;;8.77;3.20;;;30.00;17.50;;;;;;5053686;28;20056;-83
2023/10/13 12:52:19;;;;;;;8.02;3.35;;;29.80;17.30;;;;;;5054157;28;20017;-82
2023/10/13 12:57:23;;;;;;;8.55;3.70;;;29.40;18.10;;;;;;5062679;28;20108;-79
2023/10/13 12:59:49;;;;;;;8.93;3.72;;;29.40;17.70;;;;;;5056040;28;20021;-82
2023/10/13 13:02:20;;;;;;;5.68;2.92;;;29.40;18.30;;;;;;5055949;28;20163;-80
2023/10/13 13:04:48;;;;;;;10.40;3.30;;;29.70;18.10;;;;;;5058972;28;20029;-78
2023/10/13 13:07:13;;;;;;;8.02;3.17;;;29.70;17.70;;;;;;5058220;28;20013;-82
2023/10/13 13:09:42;;;;;;;7.05;3.58;;;29.60;18.10;;;;;;5057686;28;20458;-82
2023/10/13 13:12:12;;;;;;;8.45;3.78;;;29.60;17.90;;;;;;5057602;28;20032;-82
2023/10/13 13:14:40;;;;;;;7.25;3.40;;;29.80;17.30;;;;;;5057642;28;20061;-81
2023/10/13 13:17:06;;;;;;;10.68;3.00;;;29.70;18.00;;;;;;5057302;28;20021;-82
2023/10/13 13:19:35;;;;;;;15.65;4.13;;;30.10;17.60;;;;;;5064145;28;20029;-81
2023/10/13 13:22:02;;;;;;;6.35;3.00;;;30.30;17.30;;;;;;5072281;28;20025;-80
2023/10/13 13:24:29;;;;;;;6.40;3.20;;;30.30;17.20;;;;;;5063527;28;20020;-82
2023/10/13 13:26:56;;;;;;;6.78;3.40;;;30.50;17.50;;;;;;5058210;28;20536;-82
2023/10/13 13:29:21;;;;;;;6.65;3.25;;;30.90;17.10;;;;;;5056896;28;20044;-81
2023/10/13 13:31:47;;;;;;;9.73;3.50;;;31.50;16.90;;;;;;5056392;28;20469;-81
2023/10/13 13:34:12;;;;;;;8.30;3.08;;;31.60;15.50;;;;;;5056243;28;20048;-75
2023/10/13 13:36:43;;;;;;;11.23;3.50;;;31.70;14.80;;;;;;5055597;28;20025;-82
2023/10/13 13:39:09;;;;;;;11.70;3.22;;;31.60;15.10;;;;;;5057560;28;20120;-80
2023/10/13 13:41:35;;;;;;;7.45;3.38;;;31.50;14.90;;;;;;5055605;28;20033;-82
2023/10/13 13:44:13;;;;;;;6.57;3.40;;;31.80;14.10;;;;;;5056836;28;20060;-81
2023/10/13 13:46:41;;;;;;;9.23;3.67;;;32.00;14.60;;;;;;5055208;28;20029;-83
2023/10/13 13:49:17;;;;;;;10.10;3.45;;;31.90;14.50;;;;;;5055367;28;20103;-77
2023/10/13 13:51:43;;;;;;;9.13;3.15;;;31.80;14.60;;;;;;5056320;28;20390;-82
2023/10/13 13:54:09;;;;;;;6.03;2.90;;;32.00;14.50;;;;;;5055074;28;20037;-81
2023/10/13 13:56:38;;;;;;;6.03;3.25;;;32.20;13.90;;;;;;5054987;28;20028;-80
2023/10/13 13:59:15;;;;;;;5.90;3.25;;;32.60;13.80;;;;;;5056041;28;20452;-79
2023/10/13 14:01:44;;;;;;;8.02;2.90;;;32.90;13.10;;;;;;5056059;28;20021;-79
2023/10/13 14:04:10;;;;;;;7.78;3.30;;;33.10;13.30;;;;;;5054584;28;20040;-76
2023/10/13 14:06:37;;;;;;;7.47;3.00;;;33.70;13.10;;;;;;5055340;28;20025;-78
2023/10/13 14:09:13;;;;;;;10.88;3.63;;;34.30;12.70;;;;;;5055971;28;20017;-74
2023/10/13 14:16:52;;;;;;;9.90;3.17;;;35.20;11.90;;;;;;5056244;28;20538;-77
2023/10/13 14:19:27;;;;;;;8.95;3.10;;;36.00;10.30;;;;;;5054161;28;20027;-75
2023/10/13 14:21:55;;;;;;;;;;;36.20;10.30;;;;;;5054942;28;20499;-80
2023/10/13 14:24:28;;;;;;;6.22;3.20;;;37.00;9.60;;;;;;5054030;28;20365;-82
2023/10/13 14:27:17;;;;;;;7.30;3.05;;;38.00;8.80;;;;;;5053798;28;20444;-81
2023/10/13 14:29:43;;;;;;;6.03;2.85;;;38.80;8.00;;;;;;5054322;28;20017;-76
2023/10/13 14:32:13;;;;;;;5.63;2.83;;;38.70;8.10;;;;;;5053762;28;20358;-78
2023/10/13 14:34:43;;;;;;;7.35;2.97;;;38.80;7.20;;;;;;5054692;28;20037;-78
2023/10/13 14:37:26;;;;;;;6.35;2.75;;;39.40;7.70;;;;;;5055105;28;20033;-78
2023/10/13 14:39:56;;;;;;;5.30;2.78;;;40.10;7.60;;;;;;5054910;28;20032;-82
2023/10/13 14:42:23;;;;;;;7.40;2.83;;;40.90;6.90;;;;;;5054731;28;20104;-73
2023/10/13 14:44:55;;;;;;;6.40;2.72;;;42.20;6.70;;;;;;5054983;28;20029;-74
2023/10/13 14:47:24;;;;;;;9.10;2.88;;;42.30;5.80;;;;;;5053519;28;20025;-78
2023/10/13 14:50:03;;;;;;;5.57;2.80;;;41.40;6.60;;;;;;5054667;28;20049;-79
2023/10/13 14:52:31;;;;;;;7.40;3.05;;;41.10;6.40;;;;;;5054456;28;20052;-73
2023/10/13 14:55:00;;;;;;;7.43;2.97;;;41.00;6.40;;;;;;5054674;28;20013;-75
2023/10/13 14:57:25;;;;;;;3.92;2.60;;;40.60;6.60;;;;;;5054265;28;20564;-78
2023/10/13 14:59:54;;;;;;;7.57;2.47;;;40.10;6.80;;;;;;5052863;28;20116;-73
2023/10/13 15:02:21;;;;;;;5.63;2.75;;;40.10;7.20;;;;;;5052816;28;20027;-74
2023/10/13 15:04:50;;;;;;;7.00;2.95;;;40.50;6.90;;;;;;5053913;28;20041;-73
2023/10/13 15:07:17;;;;;;;6.50;3.03;;;40.50;6.70;;;;;;5054077;28;20036;-74
2023/10/13 15:09:44;;;;;;;10.60;3.30;;;40.10;7.40;;;;;;5054140;28;20029;-77
2023/10/13 15:12:11;;;;;;;9.68;3.50;;;39.70;7.80;;;;;;5052569;28;20115;-74
2023/10/13 15:14:39;;;;;;;6.78;2.63;;;40.20;7.70;;;;;;5053825;28;20025;-72
2023/10/13 15:17:06;;;;;;;6.75;2.90;;;39.90;7.80;;;;;;5053175;28;20017;-73
2023/10/13 15:19:38;;;;;;;8.35;3.00;;;39.70;7.90;;;;;;5051865;28;20029;-73
2023/10/13 15:22:06;;;;;;;7.00;2.97;;;39.20;8.50;;;;;;5053752;28;20401;-74
2023/10/13 15:24:36;;;;;;;6.47;2.55;;;39.50;8.20;;;;;;5052589;28;20060;-76
2023/10/13 15:27:02;;;;;;;8.98;3.05;;;39.50;8.50;;;;;;5054162;28;20163;-75
2023/10/13 15:29:35;;;;;;;9.63;3.28;;;38.50;9.10;;;;;;5055785;28;20032;-73
2023/10/13 15:34:30;;;;;;;6.68;2.50;;;37.50;9.80;;;;;;5053754;28;20053;-73
2023/10/13 15:36:57;;;;;;;7.00;3.08;;;36.80;10.50;;;;;;5052365;28;20025;-73
2023/10/13 15:39:23;;;;;;;10.10;3.20;;;36.60;10.70;;;;;;5053468;28;20033;-73
2023/10/13 15:41:52;;;;;;;5.47;3.67;;;37.00;10.80;;;;;;5052317;28;20025;-74
2023/10/13 15:44:24;;;;;;;6.20;2.65;;;36.10;11.70;;;;;;5053415;28;20495;-74
2023/10/13 15:46:52;;;;;;;12.10;3.05;;;36.30;11.70;;;;;;5053459;28;20531;-73
2023/10/13 15:49:18;;;;;;;7.05;3.40;;;36.50;10.80;;;;;;5053060;28;20479;-75
2023/10/13 15:51:44;;;;;;;5.35;2.88;;;36.00;11.60;;;;;;5053287;28;20025;-72
2023/10/13 15:54:16;;;;;;;6.93;3.28;;;35.10;12.60;;;;;;5053752;28;20051;-83
2023/10/13 15:56:43;;;;;;;8.70;3.15;;;35.20;12.60;;;;;;5053492;28;20466;-72
2023/10/13 15:59:09;;;;;;;7.35;3.60;;;34.70;12.60;;;;;;5053160;28;20025;-72
2023/10/13 16:01:35;;;;;;;7.55;3.13;;;34.50;13.40;;;;;;5053173;28;20685;-72
2023/10/13 16:04:10;;;;;;;7.13;2.80;;;33.90;13.60;;;;;;5053038;28;20064;-71
2023/10/13 16:06:54;;;;;;;9.18;3.55;;;32.60;15.50;;;;;;5053451;28;20065;-72
2023/10/13 16:09:23;;;;;;;6.57;3.58;;;31.30;17.60;;;;;;5053139;28;20029;-71